createdAt,value
2018-12-06T00:00:09.989Z,23.49
2018-12-06T00:02:36.624Z,23.52
2018-12-06T00:05:03.276Z,23.49
2018-12-06T00:07:29.920Z,23.50
2018-12-06T00:09:56.586Z,23.52
2018-12-06T00:12:23.235Z,23.46
2018-12-06T00:14:49.890Z,23.51
2018-12-06T00:17:16.529Z,23.52
2018-12-06T00:19:43.160Z,23.46
2018-12-06T00:22:09.809Z,23.45
2018-12-06T00:24:36.443Z,23.41
2018-12-06T00:27:03.090Z,23.42
2018-12-06T00:29:29.741Z,23.42
2018-12-06T00:31:56.391Z,23.49
2018-12-06T00:34:23.029Z,23.42
2018-12-06T00:36:49.678Z,23.46
2018-12-06T00:39:16.321Z,23.45
2018-12-06T00:41:42.973Z,23.50
2018-12-06T00:44:09.614Z,23.45
2018-12-06T00:46:36.258Z,23.48
2018-12-06T00:49:02.897Z,23.46
2018-12-06T00:51:29.562Z,23.49
2018-12-06T00:53:56.194Z,23.47
2018-12-06T00:56:22.833Z,23.51
2018-12-06T00:58:49.476Z,23.51
2018-12-06T01:01:19.433Z,23.49
2018-12-06T01:03:46.092Z,23.50
2018-12-06T01:06:12.735Z,23.50
2018-12-06T01:08:39.374Z,23.50
2018-12-06T01:11:06.022Z,23.48
2018-12-06T01:13:32.677Z,23.48
2018-12-06T01:15:59.316Z,23.52
2018-12-06T01:18:25.964Z,23.54
2018-12-06T01:20:52.609Z,23.50
2018-12-06T01:23:19.259Z,23.52
2018-12-06T01:25:45.903Z,23.48
2018-12-06T01:28:12.548Z,23.51
2018-12-06T01:30:39.203Z,23.51
2018-12-06T01:33:05.875Z,23.49
2018-12-06T01:35:32.516Z,23.50
2018-12-06T01:37:59.152Z,23.51
2018-12-06T01:40:25.789Z,23.52
2018-12-06T01:42:52.437Z,23.50
2018-12-06T01:45:20.483Z,23.53
2018-12-06T01:47:45.746Z,23.53
2018-12-06T01:50:12.406Z,23.51
2018-12-06T01:52:39.037Z,23.54
2018-12-06T01:55:05.672Z,23.52
2018-12-06T01:57:32.325Z,23.52
2018-12-06T01:59:58.965Z,23.53
2018-12-06T02:02:25.617Z,23.53
2018-12-06T02:04:52.277Z,23.54
2018-12-06T02:07:18.918Z,23.54
2018-12-06T02:09:45.606Z,23.50
2018-12-06T02:12:12.201Z,23.52
2018-12-06T02:14:38.839Z,23.51
2018-12-06T02:17:05.491Z,23.51
2018-12-06T02:19:32.133Z,23.50
2018-12-06T02:21:58.774Z,23.53
2018-12-06T02:24:25.410Z,23.51
2018-12-06T02:26:52.063Z,23.51
2018-12-06T02:29:18.749Z,23.51
2018-12-06T02:31:45.412Z,23.51
2018-12-06T02:34:12.056Z,23.52
2018-12-06T02:36:38.702Z,23.50
2018-12-06T02:39:05.466Z,23.50
2018-12-06T02:41:32.106Z,23.51
2018-12-06T02:43:58.748Z,23.52
2018-12-06T02:46:25.412Z,23.46
2018-12-06T02:48:52.106Z,23.50
2018-12-06T02:51:18.759Z,23.48
2018-12-06T02:53:45.449Z,23.50
2018-12-06T02:56:12.100Z,23.51
2018-12-06T02:58:38.759Z,23.47
2018-12-06T03:01:05.414Z,23.50
2018-12-06T03:03:32.055Z,23.50
2018-12-06T03:05:58.754Z,23.49
2018-12-06T03:08:25.392Z,23.50
2018-12-06T03:10:52.033Z,23.49
2018-12-06T03:13:18.680Z,23.50
2018-12-06T03:15:45.319Z,23.50
2018-12-06T03:18:11.974Z,23.50
2018-12-06T03:20:38.610Z,23.49
2018-12-06T03:23:05.279Z,23.51
2018-12-06T03:25:31.922Z,23.46
2018-12-06T03:27:58.606Z,23.47
2018-12-06T03:30:25.271Z,23.47
2018-12-06T03:32:51.957Z,23.52
2018-12-06T03:35:18.613Z,23.49
2018-12-06T03:37:45.238Z,23.55
2018-12-06T03:40:11.888Z,23.50
2018-12-06T03:42:38.534Z,23.51
2018-12-06T03:45:05.172Z,23.47
2018-12-06T03:47:31.843Z,23.48
2018-12-06T03:49:58.489Z,23.49
2018-12-06T03:52:25.137Z,23.47
2018-12-06T03:54:51.780Z,23.50
2018-12-06T03:57:18.416Z,23.48
2018-12-06T03:59:45.061Z,23.51
2018-12-06T04:02:11.701Z,23.49
2018-12-06T04:04:38.360Z,23.50
2018-12-06T04:07:05.001Z,23.33
2018-12-06T04:09:31.636Z,23.52
2018-12-06T04:11:58.281Z,23.41
2018-12-06T04:14:24.999Z,22.69
2018-12-06T04:16:51.655Z,22.45
2018-12-06T04:19:18.352Z,22.17
2018-12-06T04:21:45.002Z,22.01
2018-12-06T04:24:11.643Z,21.74
2018-12-06T04:26:38.289Z,21.80
2018-12-06T04:29:04.926Z,21.71
2018-12-06T04:31:31.611Z,21.62
2018-12-06T04:33:58.297Z,21.79
2018-12-06T04:36:24.961Z,22.06
2018-12-06T04:38:51.603Z,22.20
2018-12-06T04:41:18.300Z,22.25
2018-12-06T04:43:47.806Z,22.43
2018-12-06T04:46:14.461Z,22.53
2018-12-06T04:48:41.112Z,22.55
2018-12-06T04:51:07.760Z,22.76
2018-12-06T04:53:34.439Z,22.81
2018-12-06T04:56:01.133Z,23.10
2018-12-06T04:58:30.771Z,23.03
2018-12-06T05:00:57.464Z,23.26
2018-12-06T05:03:24.098Z,23.26
2018-12-06T05:05:50.757Z,23.13
2018-12-06T05:08:17.398Z,23.10
2018-12-06T05:10:44.054Z,23.09
2018-12-06T05:13:10.696Z,23.13
2018-12-06T05:15:37.345Z,23.34
2018-12-06T05:18:03.992Z,23.28
2018-12-06T05:20:30.711Z,23.27
2018-12-06T05:22:57.366Z,23.37
2018-12-06T05:25:24.064Z,23.21
2018-12-06T05:27:50.720Z,23.36
2018-12-06T05:30:17.365Z,23.22
2018-12-06T05:32:44.014Z,23.19
2018-12-06T05:35:10.742Z,23.19
2018-12-06T05:37:37.383Z,23.31
2018-12-06T05:40:04.014Z,23.29
2018-12-06T05:42:30.657Z,23.30
2018-12-06T05:44:57.317Z,23.34
2018-12-06T05:47:23.958Z,23.33
2018-12-06T05:49:50.618Z,23.32
2018-12-06T05:52:17.258Z,23.31
2018-12-06T05:54:43.952Z,23.28
2018-12-06T05:57:10.603Z,23.31
2018-12-06T05:59:37.249Z,23.35
2018-12-06T06:02:03.884Z,23.40
2018-12-06T06:04:33.573Z,23.31
2018-12-06T06:07:00.222Z,23.09
2018-12-06T06:09:26.865Z,22.92
2018-12-06T06:11:53.516Z,22.92
2018-12-06T06:14:20.160Z,23.09
2018-12-06T06:16:46.804Z,23.29
2018-12-06T06:19:13.501Z,23.34
2018-12-06T06:21:40.162Z,23.40
2018-12-06T06:24:06.814Z,23.54
2018-12-06T06:26:33.459Z,23.76
2018-12-06T06:29:00.157Z,23.91
2018-12-06T06:31:26.801Z,23.90
2018-12-06T06:33:53.454Z,24.05
2018-12-06T06:36:20.155Z,24.07
2018-12-06T06:38:46.812Z,24.00
2018-12-06T06:41:13.514Z,24.02
2018-12-06T06:43:40.283Z,24.11
2018-12-06T06:46:06.928Z,24.21
2018-12-06T06:48:33.630Z,24.36
2018-12-06T06:51:00.310Z,24.42
2018-12-06T06:53:26.980Z,24.34
2018-12-06T06:55:53.664Z,24.13
2018-12-06T06:58:20.311Z,24.11
2018-12-06T07:00:47.279Z,24.12
2018-12-06T07:03:13.972Z,24.12
2018-12-06T07:05:40.609Z,24.10
2018-12-06T07:08:07.264Z,24.23
2018-12-06T07:10:33.971Z,24.22
2018-12-06T07:13:00.614Z,24.16
2018-12-06T07:15:27.314Z,24.22
2018-12-06T07:17:53.954Z,24.36
2018-12-06T07:20:20.622Z,24.36
2018-12-06T07:22:47.396Z,24.40
2018-12-06T07:25:14.210Z,24.65
2018-12-06T07:27:40.894Z,24.60
2018-12-06T07:30:12.266Z,24.70
2018-12-06T07:32:34.206Z,24.67
2018-12-06T07:35:00.848Z,24.63
2018-12-06T07:37:27.534Z,24.62
2018-12-06T07:39:54.186Z,24.40
2018-12-06T07:42:20.871Z,24.61
2018-12-06T07:44:47.530Z,24.57
2018-12-06T07:47:14.238Z,24.71
2018-12-06T07:49:40.907Z,24.49
2018-12-06T07:52:07.671Z,24.47
2018-12-06T07:54:34.877Z,24.48
2018-12-06T07:57:01.609Z,24.49
2018-12-06T07:59:28.257Z,24.56
2018-12-06T08:01:55.882Z,24.61
2018-12-06T08:04:22.708Z,24.65
2018-12-06T08:06:49.376Z,24.61
2018-12-06T08:09:16.050Z,24.68
2018-12-06T08:11:42.760Z,24.73
2018-12-06T08:14:09.448Z,24.84
2018-12-06T08:16:36.125Z,24.99
2018-12-06T08:19:02.825Z,25.14
2018-12-06T08:21:29.568Z,25.05
2018-12-06T08:23:56.205Z,25.26
2018-12-06T08:26:22.939Z,25.29
2018-12-06T08:28:49.581Z,25.20
2018-12-06T08:31:16.273Z,25.31
2018-12-06T08:33:42.942Z,25.30
2018-12-06T08:36:09.702Z,25.33
2018-12-06T08:38:36.537Z,25.24
2018-12-06T08:41:03.182Z,25.32
2018-12-06T08:43:29.854Z,25.20
2018-12-06T08:45:56.504Z,25.34
2018-12-06T08:48:23.192Z,25.33
2018-12-06T08:50:49.848Z,25.28
2018-12-06T08:53:16.580Z,25.32
2018-12-06T08:55:43.290Z,25.37
2018-12-06T08:58:09.945Z,25.40
2018-12-06T09:00:36.674Z,25.38
2018-12-06T09:03:03.347Z,25.30
2018-12-06T09:05:30.002Z,25.37
2018-12-06T09:07:56.736Z,25.32
2018-12-06T09:10:23.379Z,25.38
2018-12-06T09:12:50.184Z,25.31
2018-12-06T09:15:16.826Z,25.35
2018-12-06T09:17:43.525Z,25.38
2018-12-06T09:20:10.191Z,25.32
2018-12-06T09:22:36.887Z,25.30
2018-12-06T09:25:03.530Z,25.45
2018-12-06T09:27:30.195Z,25.55
2018-12-06T09:29:56.891Z,25.41
2018-12-06T09:32:23.698Z,25.42
2018-12-06T09:34:50.338Z,25.24
2018-12-06T09:37:16.985Z,25.18
2018-12-06T09:39:43.627Z,25.26
2018-12-06T09:42:10.462Z,25.32
2018-12-06T09:44:37.112Z,25.29
2018-12-06T09:47:03.810Z,25.23
2018-12-06T09:49:30.471Z,25.25
2018-12-06T09:51:57.122Z,25.16
2018-12-06T09:54:23.778Z,25.21
2018-12-06T09:56:50.479Z,25.21
2018-12-06T09:59:17.122Z,25.13
2018-12-06T10:01:43.766Z,25.18
2018-12-06T10:04:10.483Z,25.24
2018-12-06T10:06:37.127Z,25.19
2018-12-06T10:09:03.778Z,25.19
2018-12-06T10:11:30.503Z,25.33
2018-12-06T10:13:57.154Z,25.28
2018-12-06T10:16:23.986Z,25.12
2018-12-06T10:18:50.679Z,25.10
2018-12-06T10:21:17.330Z,25.15
2018-12-06T10:23:43.981Z,25.22
2018-12-06T10:26:10.633Z,24.97
2018-12-06T10:28:37.341Z,25.12
2018-12-06T10:31:04.019Z,25.26
2018-12-06T10:33:30.676Z,25.13
2018-12-06T10:35:57.342Z,25.09
2018-12-06T10:38:24.038Z,25.11
2018-12-06T10:40:50.681Z,25.34
2018-12-06T10:43:17.374Z,25.19
2018-12-06T10:45:44.020Z,25.15
2018-12-06T10:48:10.663Z,25.19
2018-12-06T10:50:37.351Z,25.13
2018-12-06T10:53:04.337Z,25.13
2018-12-06T10:55:31.043Z,25.16
2018-12-06T10:57:57.742Z,25.21
2018-12-06T11:00:24.385Z,25.28
2018-12-06T11:02:51.095Z,25.16
2018-12-06T11:05:17.740Z,25.16
2018-12-06T11:07:44.432Z,25.33
2018-12-06T11:10:11.074Z,25.28
2018-12-06T11:12:37.784Z,25.24
2018-12-06T11:15:04.470Z,25.36
2018-12-06T11:17:31.123Z,25.38
2018-12-06T11:19:58.086Z,25.33
2018-12-06T11:22:24.707Z,25.36
2018-12-06T11:24:51.473Z,25.39
2018-12-06T11:27:18.122Z,25.48
2018-12-06T11:29:44.956Z,25.41
2018-12-06T11:32:11.722Z,25.46
2018-12-06T11:34:38.437Z,25.29
2018-12-06T11:37:05.085Z,25.48
2018-12-06T11:39:31.786Z,25.42
2018-12-06T11:41:58.439Z,25.49
2018-12-06T11:44:25.089Z,25.52
2018-12-06T11:46:51.795Z,25.44
2018-12-06T11:49:19.495Z,25.49
2018-12-06T11:51:46.170Z,25.45
2018-12-06T11:54:12.814Z,25.53
2018-12-06T11:56:39.503Z,25.46
2018-12-06T11:59:09.333Z,25.51
2018-12-06T12:01:36.107Z,25.51
2018-12-06T12:06:55.994Z,24.64
2018-12-06T12:09:25.625Z,24.47
2018-12-06T12:11:52.272Z,24.23
2018-12-06T12:14:18.978Z,24.12
2018-12-06T12:21:20.798Z,25.52
2018-12-06T12:23:47.480Z,25.50
2018-12-06T12:26:14.122Z,25.42
2018-12-06T12:28:40.844Z,25.33
2018-12-06T12:31:07.493Z,25.33
2018-12-06T12:33:34.189Z,25.29
2018-12-06T12:36:00.899Z,25.27
2018-12-06T12:38:27.594Z,25.33
2018-12-06T12:40:54.236Z,25.26
2018-12-06T12:43:20.978Z,25.34
2018-12-06T12:45:47.665Z,25.20
2018-12-06T12:48:14.362Z,25.14
2018-12-06T12:50:41.043Z,25.07
2018-12-06T12:53:07.709Z,25.11
2018-12-06T12:55:34.486Z,25.11
2018-12-06T12:58:01.197Z,25.11
2018-12-06T13:00:29.934Z,25.28
2018-12-06T13:02:56.736Z,25.04
2018-12-06T13:05:23.393Z,25.29
2018-12-06T13:07:50.117Z,25.13
2018-12-06T13:10:16.763Z,25.15
2018-12-06T13:12:43.411Z,25.09
2018-12-06T13:15:10.068Z,25.11
2018-12-06T13:17:36.718Z,24.96
2018-12-06T13:20:03.510Z,25.06
2018-12-06T13:22:30.372Z,24.94
2018-12-06T13:24:57.029Z,25.01
2018-12-06T13:27:23.732Z,25.08
2018-12-06T13:29:50.464Z,24.99
2018-12-06T13:32:17.118Z,25.02
2018-12-06T13:34:43.848Z,24.91
2018-12-06T13:37:10.561Z,24.94
2018-12-06T13:39:37.204Z,24.97
2018-12-06T13:42:06.229Z,24.81
2018-12-06T13:44:32.879Z,24.80
2018-12-06T13:46:59.526Z,24.86
2018-12-06T13:49:26.201Z,24.86
2018-12-06T13:51:52.868Z,24.88
2018-12-06T13:54:26.762Z,24.86
2018-12-06T13:56:46.251Z,24.81
2018-12-06T13:59:12.900Z,25.04
2018-12-06T14:01:39.544Z,24.82
2018-12-06T14:04:07.293Z,24.69
2018-12-06T14:06:33.935Z,24.54
2018-12-06T14:09:00.577Z,24.33
2018-12-06T14:11:27.229Z,24.18
2018-12-06T14:13:53.886Z,24.06
2018-12-06T14:16:20.598Z,24.23
2018-12-06T14:18:47.237Z,24.40
2018-12-06T14:21:13.978Z,24.69
2018-12-06T14:23:40.617Z,24.85
2018-12-06T14:26:07.270Z,24.77
2018-12-06T14:28:33.994Z,24.65
2018-12-06T14:31:00.640Z,24.62
2018-12-06T14:33:27.346Z,24.72
2018-12-06T14:35:53.988Z,24.65
2018-12-06T14:38:20.640Z,24.59
2018-12-06T14:40:47.315Z,24.62
2018-12-06T14:43:14.005Z,24.81
2018-12-06T14:45:40.657Z,24.91
2018-12-06T14:48:07.318Z,24.68
2018-12-06T14:50:33.962Z,24.82
2018-12-06T14:53:00.659Z,24.75
2018-12-06T14:55:27.363Z,24.76
2018-12-06T14:57:54.027Z,24.56
2018-12-06T15:00:20.695Z,24.60
2018-12-06T15:02:47.369Z,24.61
2018-12-06T15:05:14.619Z,24.57
2018-12-06T15:07:41.306Z,24.59
2018-12-06T15:10:08.008Z,24.41
2018-12-06T15:12:34.725Z,24.45
2018-12-06T15:15:01.571Z,24.57
2018-12-06T15:17:28.270Z,24.48
2018-12-06T15:19:54.992Z,24.32
2018-12-06T15:22:21.838Z,24.29
2018-12-06T15:24:51.408Z,24.34
2018-12-06T15:27:15.533Z,24.43
2018-12-06T15:29:44.838Z,24.48
2018-12-06T15:32:11.560Z,24.30
2018-12-06T15:34:38.284Z,24.19
2018-12-06T15:37:05.158Z,24.21
2018-12-06T15:39:31.999Z,24.14
2018-12-06T15:41:58.693Z,24.12
2018-12-06T15:44:25.345Z,24.12
2018-12-06T15:46:52.101Z,24.13
2018-12-06T15:49:18.843Z,24.19
2018-12-06T15:51:45.534Z,24.10
2018-12-06T15:54:12.175Z,24.08
2018-12-06T15:56:38.826Z,24.10
2018-12-06T15:59:05.529Z,24.00
2018-12-06T16:01:32.238Z,24.05
2018-12-06T16:03:58.991Z,23.92
2018-12-06T16:06:25.684Z,23.97
2018-12-06T16:08:52.326Z,24.05
2018-12-06T16:11:19.090Z,24.07
2018-12-06T16:13:45.730Z,24.11
2018-12-06T16:16:12.379Z,24.09
2018-12-06T16:18:39.046Z,24.08
2018-12-06T16:21:05.693Z,24.02
2018-12-06T16:23:32.390Z,24.00
2018-12-06T16:25:59.119Z,24.05
2018-12-06T16:28:25.840Z,24.12
2018-12-06T16:30:52.525Z,24.11
2018-12-06T16:33:19.320Z,24.14
2018-12-06T16:35:46.552Z,24.02
2018-12-06T16:38:12.638Z,23.98
2018-12-06T16:40:39.307Z,24.02
2018-12-06T16:43:05.947Z,24.02
2018-12-06T16:45:32.733Z,24.09
2018-12-06T16:47:59.375Z,24.01
2018-12-06T16:50:26.074Z,23.99
2018-12-06T16:52:52.714Z,24.06
2018-12-06T16:55:19.370Z,23.96
2018-12-06T16:57:46.128Z,23.97
2018-12-06T17:00:14.536Z,23.95
2018-12-06T17:02:39.415Z,23.92
2018-12-06T17:05:06.076Z,23.88
2018-12-06T17:07:32.718Z,23.94
2018-12-06T17:09:59.353Z,23.87
2018-12-06T17:12:26.025Z,23.85
2018-12-06T17:14:52.734Z,23.82
2018-12-06T17:17:19.381Z,23.91
2018-12-06T17:19:46.029Z,23.84
2018-12-06T17:22:12.735Z,23.86
2018-12-06T17:24:39.385Z,23.83
2018-12-06T17:27:06.020Z,23.84
2018-12-06T17:29:32.678Z,23.79
2018-12-06T17:31:59.382Z,23.85
2018-12-06T17:34:26.030Z,23.76
2018-12-06T17:36:52.672Z,23.75
2018-12-06T17:39:19.352Z,23.77
2018-12-06T17:41:46.143Z,23.81
2018-12-06T17:44:12.837Z,23.77
2018-12-06T17:46:39.498Z,23.75
2018-12-06T17:49:06.200Z,23.72
2018-12-06T17:51:32.853Z,23.79
2018-12-06T17:53:59.507Z,23.72
2018-12-06T17:56:26.173Z,23.76
2018-12-06T17:58:52.815Z,23.73
2018-12-06T18:01:19.470Z,23.76
2018-12-06T18:03:46.130Z,23.72
2018-12-06T18:06:12.831Z,23.74
2018-12-06T18:08:39.640Z,23.70
2018-12-06T18:11:06.355Z,23.67
2018-12-06T18:13:32.997Z,23.68
2018-12-06T18:15:59.693Z,23.73
2018-12-06T18:18:26.433Z,23.67
2018-12-06T18:20:53.145Z,23.68
2018-12-06T18:23:19.782Z,23.63
2018-12-06T18:25:46.450Z,23.60
2018-12-06T18:28:13.155Z,23.59
2018-12-06T18:30:39.817Z,23.60
2018-12-06T18:33:06.506Z,23.56
2018-12-06T18:35:33.222Z,23.56
2018-12-06T18:37:59.883Z,23.56
2018-12-06T18:40:26.578Z,23.50
2018-12-06T18:42:53.286Z,23.56
2018-12-06T18:45:19.936Z,23.53
2018-12-06T18:47:46.588Z,23.57
2018-12-06T18:50:13.249Z,23.51
2018-12-06T18:52:39.899Z,23.54
2018-12-06T18:55:06.595Z,23.49
2018-12-06T18:57:33.321Z,23.51
2018-12-06T18:59:59.986Z,23.49
2018-12-06T19:02:26.698Z,23.49
2018-12-06T19:04:53.353Z,23.45
2018-12-06T19:07:20.031Z,23.49
2018-12-06T19:09:48.709Z,23.46
2018-12-06T19:12:15.390Z,23.47
2018-12-06T19:14:42.174Z,23.45
2018-12-06T19:17:08.861Z,23.42
2018-12-06T19:19:35.613Z,23.42
2018-12-06T19:22:02.269Z,23.43
2018-12-06T19:24:28.930Z,23.38
2018-12-06T19:26:55.651Z,23.37
2018-12-06T19:29:22.336Z,23.38
2018-12-06T19:31:49.035Z,23.41
2018-12-06T19:34:15.678Z,23.37
2018-12-06T19:36:42.319Z,23.37
2018-12-06T19:39:08.990Z,23.36
2018-12-06T19:41:35.814Z,23.37
2018-12-06T19:44:02.545Z,23.40
2018-12-06T19:46:29.179Z,23.38
2018-12-06T19:48:56.002Z,23.31
2018-12-06T19:51:22.671Z,23.34
2018-12-06T19:53:49.585Z,23.35
2018-12-06T19:56:16.225Z,23.31
2018-12-06T19:58:42.875Z,23.36
2018-12-06T20:01:09.617Z,23.35
2018-12-06T20:03:36.272Z,23.34
2018-12-06T20:06:02.966Z,23.31
2018-12-06T20:08:29.614Z,23.30
2018-12-06T20:10:56.278Z,23.25
2018-12-06T20:13:22.968Z,23.33
2018-12-06T20:15:49.715Z,23.24
2018-12-06T20:18:16.371Z,23.27
2018-12-06T20:20:43.014Z,23.30
2018-12-06T20:23:09.718Z,23.22
2018-12-06T20:25:36.359Z,23.24
2018-12-06T20:28:03.016Z,23.17
2018-12-06T20:30:29.683Z,22.99
2018-12-06T20:32:56.337Z,22.95
2018-12-06T20:35:23.030Z,22.96
2018-12-06T20:37:49.730Z,23.08
2018-12-06T20:40:16.428Z,23.09
2018-12-06T20:42:43.137Z,23.14
2018-12-06T20:45:09.798Z,23.14
2018-12-06T20:47:36.503Z,23.15
2018-12-06T20:50:03.146Z,23.22
2018-12-06T20:52:29.814Z,23.22
2018-12-06T20:54:56.440Z,23.27
2018-12-06T20:57:23.089Z,23.29
2018-12-06T20:59:49.797Z,23.30
2018-12-06T21:02:16.443Z,23.31
2018-12-06T21:04:43.138Z,23.32
2018-12-06T21:07:09.791Z,23.33
2018-12-06T21:09:36.483Z,23.25
2018-12-06T21:12:03.134Z,23.22
2018-12-06T21:14:29.837Z,23.16
2018-12-06T21:16:56.488Z,23.23
2018-12-06T21:19:25.075Z,23.15
2018-12-06T21:21:49.838Z,23.12
2018-12-06T21:24:16.474Z,23.12
2018-12-06T21:26:43.134Z,23.08
2018-12-06T21:29:09.771Z,23.06
2018-12-06T21:31:36.424Z,23.03
2018-12-06T21:34:03.116Z,23.01
2018-12-06T21:36:29.757Z,23.04
2018-12-06T21:38:56.403Z,23.04
2018-12-06T21:41:23.106Z,23.04
2018-12-06T21:43:49.751Z,23.02
2018-12-06T21:46:16.411Z,23.01
2018-12-06T21:48:43.130Z,22.98
2018-12-06T21:51:09.776Z,22.92
2018-12-06T21:53:36.431Z,22.95
2018-12-06T21:56:03.083Z,22.94
2018-12-06T21:58:29.783Z,22.88
2018-12-06T22:00:56.431Z,22.76
2018-12-06T22:03:23.094Z,22.79
2018-12-06T22:05:49.746Z,22.92
2018-12-06T22:08:16.386Z,22.91
2018-12-06T22:10:43.025Z,22.97
2018-12-06T22:13:09.736Z,22.98
2018-12-06T22:15:36.388Z,22.98
2018-12-06T22:18:03.033Z,23.01
2018-12-06T22:20:29.764Z,23.01
2018-12-06T22:22:56.409Z,23.08
2018-12-06T22:25:23.062Z,23.08
2018-12-06T22:27:49.716Z,23.09
2018-12-06T22:30:16.415Z,23.02
2018-12-06T22:32:43.058Z,22.89
2018-12-06T22:35:09.757Z,22.52
2018-12-06T22:37:37.917Z,22.27
2018-12-06T22:40:03.138Z,22.37
2018-12-06T22:42:31.088Z,22.55
2018-12-06T22:44:56.461Z,22.67
2018-12-06T22:47:23.097Z,22.71
2018-12-06T22:49:49.747Z,22.77
2018-12-06T22:52:16.400Z,22.85
2018-12-06T22:54:43.036Z,22.88
2018-12-06T22:57:09.675Z,22.88
2018-12-06T22:59:36.330Z,22.90
2018-12-06T23:02:02.984Z,22.95
2018-12-06T23:04:29.637Z,23.01
2018-12-06T23:06:56.331Z,23.00
2018-12-06T23:09:23.020Z,23.02
2018-12-06T23:11:49.658Z,23.09
2018-12-06T23:14:16.313Z,23.06
2018-12-06T23:16:43.036Z,23.06
2018-12-06T23:19:09.673Z,22.96
2018-12-06T23:21:36.375Z,22.78
2018-12-06T23:24:03.039Z,22.75
2018-12-06T23:26:29.694Z,22.81
2018-12-06T23:28:56.346Z,22.81
2018-12-06T23:31:23.009Z,22.84
2018-12-06T23:33:49.645Z,22.92
2018-12-06T23:36:16.300Z,22.92
2018-12-06T23:38:42.937Z,22.95
2018-12-06T23:41:09.639Z,22.98
2018-12-06T23:43:36.281Z,23.02
2018-12-06T23:46:02.930Z,23.03
2018-12-06T23:48:29.574Z,23.06
2018-12-06T23:50:56.269Z,23.06
2018-12-06T23:53:22.911Z,23.10
2018-12-06T23:55:49.677Z,23.05
2018-12-06T23:58:16.340Z,23.04
